KEM813 FAOR-FAGG
Flight info
| Callsign | KEM813 |
|---|---|
| Flight time | 1h 26m |
| Altitude | 34000 |
| Route | HGV5D HGV UZ16 NEVEN UQ9 XALIN |
| Aircraft | CRJ9/M-SDFGIRWY/S |
Departure
| Time | 2026-04-12 05:51 |
|---|---|
| Airport | O.R. Tambo International Airport (FAOR) |
Arrival
| Time | 2026-04-12 07:18 |
|---|---|
| Airport | George Airport (FAGG) |
| Time | Latitude | Longitude | Altitude | Speed | Heading |
|---|---|---|---|---|---|
| 2026-04-12 05:40 | -26.13825 | 28.23099 | 5530 ft | 0 kts | 187° |
| 2026-04-12 05:42 | -26.13820 | 28.23107 | 5530 ft | 0 kts | 234° |
| 2026-04-12 05:46 | -26.13821 | 28.23106 | 5530 ft | 1 kts | 238° |
| 2026-04-12 05:47 | -26.13822 | 28.23100 | 5530 ft | 1 kts | 263° |
| 2026-04-12 05:47 | -26.13821 | 28.23094 | 5530 ft | 1 kts | 294° |
| 2026-04-12 05:47 | -26.13811 | 28.23084 | 5530 ft | 3 kts | 333° |
| 2026-04-12 05:47 | -26.13793 | 28.23090 | 5530 ft | 5 kts | 51° |
| 2026-04-12 05:48 | -26.13788 | 28.23129 | 5530 ft | 6 kts | 95° |
| 2026-04-12 05:48 | -26.13793 | 28.23183 | 5530 ft | 8 kts | 96° |
| 2026-04-12 05:48 | -26.13799 | 28.23253 | 5530 ft | 9 kts | 96° |
| 2026-04-12 05:48 | -26.13825 | 28.23314 | 5530 ft | 9 kts | 136° |
| 2026-04-12 05:49 | -26.13860 | 28.23366 | 5530 ft | 9 kts | 109° |
| 2026-04-12 05:49 | -26.13879 | 28.23439 | 5531 ft | 10 kts | 105° |
| 2026-04-12 05:49 | -26.13897 | 28.23510 | 5531 ft | 9 kts | 105° |
| 2026-04-12 05:49 | -26.13914 | 28.23577 | 5532 ft | 9 kts | 105° |
| 2026-04-12 05:50 | -26.13918 | 28.23641 | 5533 ft | 8 kts | 66° |
| 2026-04-12 05:50 | -26.13879 | 28.23672 | 5533 ft | 7 kts | 17° |
| 2026-04-12 05:50 | -26.13727 | 28.23719 | 5531 ft | 50 kts | 15° |
| 2026-04-12 05:50 | -26.13172 | 28.23891 | 5529 ft | 113 kts | 15° |
| 2026-04-12 05:51 | -26.12259 | 28.24175 | 5531 ft | 161 kts | 15° |
| 2026-04-12 05:51 | -26.11101 | 28.24544 | 5832 ft | 180 kts | 16° |
| 2026-04-12 05:51 | -26.09867 | 28.24955 | 6381 ft | 189 kts | 16° |
| 2026-04-12 05:51 | -26.08576 | 28.25374 | 6939 ft | 198 kts | 15° |
| 2026-04-12 05:52 | -26.07215 | 28.25805 | 7493 ft | 209 kts | 15° |
| 2026-04-12 05:52 | -26.05780 | 28.26265 | 8039 ft | 219 kts | 15° |
| 2026-04-12 05:52 | -26.04347 | 28.26885 | 8622 ft | 226 kts | 34° |
| 2026-04-12 05:52 | -26.03375 | 28.28251 | 9214 ft | 230 kts | 69° |
| 2026-04-12 05:53 | -26.03246 | 28.30014 | 9840 ft | 233 kts | 103° |
| 2026-04-12 05:53 | -26.04002 | 28.31618 | 10429 ft | 242 kts | 136° |
| 2026-04-12 05:53 | -26.05426 | 28.32565 | 11062 ft | 248 kts | 167° |
| 2026-04-12 05:53 | -26.07196 | 28.32744 | 11702 ft | 258 kts | 180° |
| 2026-04-12 05:54 | -26.09027 | 28.32734 | 12229 ft | 274 kts | 182° |
| 2026-04-12 05:54 | -26.10984 | 28.32829 | 12726 ft | 291 kts | 166° |
| 2026-04-12 05:54 | -26.12779 | 28.33949 | 13250 ft | 306 kts | 136° |
| 2026-04-12 05:54 | -26.14402 | 28.35548 | 13782 ft | 319 kts | 151° |
| 2026-04-12 05:55 | -26.16561 | 28.36188 | 14334 ft | 330 kts | 181° |
| 2026-04-12 05:55 | -26.18865 | 28.35795 | 14901 ft | 341 kts | 190° |
| 2026-04-12 05:55 | -26.21265 | 28.35471 | 15446 ft | 354 kts | 186° |
| 2026-04-12 05:55 | -26.23758 | 28.35192 | 15983 ft | 366 kts | 186° |
| 2026-04-12 05:56 | -26.26332 | 28.34877 | 16512 ft | 377 kts | 187° |
| 2026-04-12 05:56 | -26.28973 | 28.34493 | 17033 ft | 387 kts | 188° |
| 2026-04-12 05:56 | -26.31642 | 28.34094 | 17540 ft | 396 kts | 188° |
| 2026-04-12 05:56 | -26.34401 | 28.33673 | 18053 ft | 405 kts | 188° |
| 2026-04-12 05:57 | -26.37221 | 28.33246 | 18563 ft | 412 kts | 188° |
| 2026-04-12 05:57 | -26.40084 | 28.32808 | 19058 ft | 419 kts | 188° |
| 2026-04-12 05:57 | -26.42992 | 28.32341 | 19570 ft | 425 kts | 188° |
| 2026-04-12 05:57 | -26.45934 | 28.31861 | 20069 ft | 430 kts | 188° |
| 2026-04-12 05:58 | -26.48919 | 28.31408 | 20578 ft | 435 kts | 188° |
| 2026-04-12 05:58 | -26.51932 | 28.30954 | 21070 ft | 439 kts | 188° |
| 2026-04-12 05:59 | -26.54973 | 28.30494 | 21572 ft | 443 kts | 188° |
| 2026-04-12 05:59 | -26.58032 | 28.30030 | 22070 ft | 445 kts | 188° |
| 2026-04-12 05:59 | -26.61073 | 28.29573 | 22561 ft | 447 kts | 188° |
| 2026-04-12 05:59 | -26.64167 | 28.29106 | 23059 ft | 449 kts | 188° |
| 2026-04-12 06:00 | -26.67266 | 28.28629 | 23554 ft | 450 kts | 188° |
| 2026-04-12 06:00 | -26.70357 | 28.28015 | 24047 ft | 451 kts | 192° |
| 2026-04-12 06:00 | -26.73427 | 28.27252 | 24542 ft | 452 kts | 194° |
| 2026-04-12 06:00 | -26.76471 | 28.26379 | 25034 ft | 452 kts | 195° |
| 2026-04-12 06:01 | -26.79509 | 28.25445 | 25527 ft | 452 kts | 195° |
| 2026-04-12 06:01 | -26.82541 | 28.24502 | 26020 ft | 452 kts | 196° |
| 2026-04-12 06:01 | -26.85582 | 28.23566 | 26514 ft | 452 kts | 195° |
| 2026-04-12 06:01 | -26.88614 | 28.22666 | 27005 ft | 450 kts | 195° |
| 2026-04-12 06:02 | -26.91643 | 28.21769 | 27498 ft | 449 kts | 195° |
| 2026-04-12 06:02 | -26.94615 | 28.20889 | 27982 ft | 447 kts | 195° |
| 2026-04-12 06:02 | -26.97618 | 28.19998 | 28473 ft | 445 kts | 195° |
| 2026-04-12 06:02 | -27.00599 | 28.19112 | 28976 ft | 442 kts | 195° |
| 2026-04-12 06:03 | -27.03570 | 28.18227 | 29453 ft | 440 kts | 195° |
| 2026-04-12 06:03 | -27.06524 | 28.17349 | 29942 ft | 437 kts | 195° |
| 2026-04-12 06:03 | -27.09459 | 28.16476 | 30431 ft | 434 kts | 195° |
| 2026-04-12 06:03 | -27.12368 | 28.15612 | 30920 ft | 431 kts | 195° |
| 2026-04-12 06:04 | -27.15258 | 28.14751 | 31407 ft | 427 kts | 195° |
| 2026-04-12 06:04 | -27.18116 | 28.13898 | 31895 ft | 423 kts | 195° |
| 2026-04-12 06:04 | -27.20952 | 28.13052 | 32383 ft | 419 kts | 195° |
| 2026-04-12 06:04 | -27.23752 | 28.12216 | 32868 ft | 414 kts | 195° |
| 2026-04-12 06:05 | -27.26527 | 28.11389 | 33355 ft | 409 kts | 195° |
| 2026-04-12 06:05 | -27.29258 | 28.10587 | 33705 ft | 404 kts | 194° |
| 2026-04-12 06:05 | -27.31940 | 28.09797 | 33859 ft | 406 kts | 195° |
| 2026-04-12 06:05 | -27.34686 | 28.08968 | 33932 ft | 411 kts | 195° |
| 2026-04-12 06:06 | -27.40282 | 28.07281 | 33991 ft | 423 kts | 195° |
| 2026-04-12 06:06 | -27.46014 | 28.05415 | 34007 ft | 435 kts | 204° |
| 2026-04-12 06:07 | -27.51421 | 28.02186 | 34019 ft | 446 kts | 211° |
| 2026-04-12 06:07 | -27.56691 | 27.98324 | 34020 ft | 457 kts | 216° |
| 2026-04-12 06:08 | -27.61876 | 27.94021 | 34012 ft | 468 kts | 217° |
| 2026-04-12 06:08 | -27.67206 | 27.89694 | 34011 ft | 474 kts | 216° |
| 2026-04-12 06:09 | -27.72578 | 27.85370 | 34003 ft | 474 kts | 216° |
| 2026-04-12 06:09 | -27.77911 | 27.81070 | 33999 ft | 473 kts | 216° |
| 2026-04-12 06:10 | -27.83268 | 27.76747 | 33997 ft | 472 kts | 216° |
| 2026-04-12 06:10 | -27.88617 | 27.72422 | 33997 ft | 472 kts | 216° |
| 2026-04-12 06:11 | -27.93961 | 27.68100 | 33997 ft | 472 kts | 216° |
| 2026-04-12 06:11 | -27.99290 | 27.63781 | 33997 ft | 471 kts | 216° |
| 2026-04-12 06:12 | -28.04663 | 27.59603 | 33998 ft | 471 kts | 214° |
| 2026-04-12 06:12 | -28.10076 | 27.55397 | 33998 ft | 471 kts | 214° |
| 2026-04-12 06:13 | -28.15477 | 27.51195 | 33997 ft | 471 kts | 214° |
| 2026-04-12 06:13 | -28.20883 | 27.46984 | 33998 ft | 470 kts | 214° |
| 2026-04-12 06:14 | -28.26242 | 27.42807 | 33998 ft | 470 kts | 214° |
| 2026-04-12 06:14 | -28.31628 | 27.38602 | 33999 ft | 470 kts | 215° |
| 2026-04-12 06:15 | -28.37026 | 27.34384 | 33999 ft | 470 kts | 215° |
| 2026-04-12 06:15 | -28.42415 | 27.30167 | 33999 ft | 470 kts | 215° |
| 2026-04-12 06:16 | -28.47802 | 27.25947 | 33998 ft | 470 kts | 215° |
| 2026-04-12 06:16 | -28.53141 | 27.21759 | 33998 ft | 470 kts | 215° |
| 2026-04-12 06:17 | -28.58522 | 27.17533 | 33998 ft | 469 kts | 215° |
| 2026-04-12 06:17 | -28.63906 | 27.13300 | 33999 ft | 469 kts | 215° |
| 2026-04-12 06:18 | -28.69288 | 27.09061 | 34000 ft | 469 kts | 215° |
| 2026-04-12 06:18 | -28.74658 | 27.04825 | 33999 ft | 469 kts | 215° |
| 2026-04-12 06:19 | -28.79993 | 27.00607 | 33999 ft | 469 kts | 215° |
| 2026-04-12 06:19 | -28.85367 | 26.96374 | 33999 ft | 469 kts | 215° |
| 2026-04-12 06:20 | -28.90735 | 26.92123 | 33999 ft | 469 kts | 215° |
| 2026-04-12 06:20 | -28.96102 | 26.87866 | 33999 ft | 469 kts | 215° |
| 2026-04-12 06:21 | -29.01470 | 26.83611 | 33999 ft | 469 kts | 215° |
| 2026-04-12 06:21 | -29.06837 | 26.79350 | 34000 ft | 469 kts | 215° |
| 2026-04-12 06:22 | -29.12165 | 26.75113 | 34000 ft | 469 kts | 215° |
| 2026-04-12 06:22 | -29.17534 | 26.70838 | 34000 ft | 469 kts | 215° |
| 2026-04-12 06:23 | -29.22896 | 26.66560 | 34000 ft | 469 kts | 215° |
| 2026-04-12 06:23 | -29.28217 | 26.62313 | 33999 ft | 469 kts | 215° |
| 2026-04-12 06:24 | -29.33578 | 26.58029 | 34000 ft | 469 kts | 215° |
| 2026-04-12 06:24 | -29.38933 | 26.53744 | 33999 ft | 469 kts | 215° |
| 2026-04-12 06:25 | -29.43387 | 26.50173 | 33998 ft | 469 kts | 215° |
| 2026-04-12 06:25 | -29.47837 | 26.46603 | 34000 ft | 469 kts | 215° |
| 2026-04-12 06:28 | -29.53766 | 26.41841 | 33999 ft | 469 kts | 215° |
| 2026-04-12 06:28 | -29.59128 | 26.37529 | 33999 ft | 469 kts | 215° |
| 2026-04-12 06:29 | -29.64475 | 26.33220 | 34000 ft | 470 kts | 215° |
| 2026-04-12 06:29 | -29.69825 | 26.28903 | 33999 ft | 470 kts | 215° |
| 2026-04-12 06:30 | -29.75187 | 26.24577 | 34000 ft | 470 kts | 215° |
| 2026-04-12 06:30 | -29.80534 | 26.20253 | 34002 ft | 470 kts | 215° |
| 2026-04-12 06:31 | -29.85883 | 26.15921 | 34000 ft | 470 kts | 215° |
| 2026-04-12 06:31 | -29.91200 | 26.11607 | 33999 ft | 470 kts | 215° |
| 2026-04-12 06:32 | -29.96548 | 26.07268 | 33999 ft | 470 kts | 215° |
| 2026-04-12 06:32 | -30.01894 | 26.02922 | 33999 ft | 470 kts | 215° |
| 2026-04-12 06:33 | -30.07240 | 25.98569 | 34000 ft | 470 kts | 215° |
| 2026-04-12 06:33 | -30.12588 | 25.94206 | 33999 ft | 470 kts | 216° |
| 2026-04-12 06:34 | -30.17903 | 25.89871 | 34000 ft | 470 kts | 215° |
| 2026-04-12 06:34 | -30.23247 | 25.85504 | 34000 ft | 470 kts | 215° |
| 2026-04-12 06:35 | -30.30921 | 25.79219 | 34000 ft | 470 kts | 216° |
| 2026-04-12 06:36 | -30.36264 | 25.74838 | 34000 ft | 470 kts | 215° |
| 2026-04-12 06:36 | -30.41609 | 25.70445 | 34000 ft | 470 kts | 216° |
| 2026-04-12 06:37 | -30.46950 | 25.66056 | 34001 ft | 470 kts | 216° |
| 2026-04-12 06:37 | -30.52262 | 25.61683 | 34000 ft | 470 kts | 216° |
| 2026-04-12 06:38 | -30.57602 | 25.57277 | 34000 ft | 470 kts | 216° |
| 2026-04-12 06:38 | -30.62930 | 25.52874 | 34000 ft | 470 kts | 216° |
| 2026-04-12 06:39 | -30.68262 | 25.48470 | 34000 ft | 470 kts | 216° |
| 2026-04-12 06:39 | -30.73560 | 25.44083 | 33999 ft | 470 kts | 216° |
| 2026-04-12 06:40 | -30.78887 | 25.39664 | 34000 ft | 470 kts | 216° |
| 2026-04-12 06:40 | -30.84212 | 25.35240 | 34000 ft | 470 kts | 216° |
| 2026-04-12 06:41 | -30.89543 | 25.30811 | 34000 ft | 470 kts | 216° |
| 2026-04-12 06:41 | -30.94867 | 25.26379 | 33999 ft | 470 kts | 216° |
| 2026-04-12 06:42 | -31.00190 | 25.21940 | 33999 ft | 470 kts | 216° |
| 2026-04-12 06:42 | -31.05511 | 25.17494 | 33999 ft | 470 kts | 216° |
| 2026-04-12 06:43 | -31.10828 | 25.13036 | 34000 ft | 471 kts | 215° |
| 2026-04-12 06:43 | -31.16130 | 25.08621 | 34000 ft | 471 kts | 216° |
| 2026-04-12 06:44 | -31.21452 | 25.04152 | 34000 ft | 471 kts | 216° |
| 2026-04-12 06:44 | -31.26783 | 24.99675 | 34001 ft | 471 kts | 216° |
| 2026-04-12 06:45 | -31.32108 | 24.95195 | 34001 ft | 471 kts | 216° |
| 2026-04-12 06:45 | -31.37441 | 24.90709 | 34001 ft | 472 kts | 216° |
| 2026-04-12 06:46 | -31.42767 | 24.86216 | 34002 ft | 472 kts | 216° |
| 2026-04-12 06:46 | -31.48062 | 24.81742 | 34002 ft | 472 kts | 216° |
| 2026-04-12 06:47 | -31.53392 | 24.77239 | 34000 ft | 472 kts | 216° |
| 2026-04-12 06:47 | -31.58719 | 24.72728 | 34000 ft | 472 kts | 216° |
| 2026-04-12 06:48 | -31.64046 | 24.68209 | 34002 ft | 472 kts | 216° |
| 2026-04-12 06:48 | -31.69329 | 24.63723 | 33999 ft | 472 kts | 216° |
| 2026-04-12 06:49 | -31.74659 | 24.59190 | 34002 ft | 473 kts | 216° |
| 2026-04-12 06:49 | -31.79808 | 24.54806 | 34002 ft | 473 kts | 216° |
| 2026-04-12 06:50 | -31.85138 | 24.50259 | 34002 ft | 473 kts | 216° |
| 2026-04-12 06:50 | -31.90461 | 24.45712 | 34000 ft | 472 kts | 216° |
| 2026-04-12 06:51 | -31.95780 | 24.41165 | 34001 ft | 472 kts | 216° |
| 2026-04-12 06:51 | -32.01062 | 24.36636 | 33999 ft | 472 kts | 216° |
| 2026-04-12 06:52 | -32.06373 | 24.32081 | 34001 ft | 472 kts | 216° |
| 2026-04-12 06:52 | -32.11681 | 24.27523 | 34001 ft | 472 kts | 216° |
| 2026-04-12 06:53 | -32.16991 | 24.22953 | 34001 ft | 471 kts | 216° |
| 2026-04-12 06:53 | -32.22247 | 24.18423 | 34000 ft | 470 kts | 216° |
| 2026-04-12 06:54 | -32.27543 | 24.13858 | 34000 ft | 470 kts | 216° |
| 2026-04-12 06:54 | -32.32796 | 24.09315 | 34003 ft | 470 kts | 216° |
| 2026-04-12 06:55 | -32.38069 | 24.04749 | 34000 ft | 469 kts | 216° |
| 2026-04-12 06:55 | -32.43330 | 24.00187 | 33999 ft | 468 kts | 217° |
| 2026-04-12 06:56 | -32.48590 | 23.95629 | 33998 ft | 468 kts | 216° |
| 2026-04-12 06:56 | -32.53840 | 23.91056 | 33998 ft | 467 kts | 216° |
| 2026-04-12 06:57 | -32.59078 | 23.86492 | 33998 ft | 467 kts | 217° |
| 2026-04-12 06:57 | -32.64286 | 23.81953 | 33998 ft | 467 kts | 216° |
| 2026-04-12 06:58 | -32.69513 | 23.77383 | 33999 ft | 466 kts | 217° |
| 2026-04-12 06:58 | -32.74749 | 23.72799 | 33999 ft | 466 kts | 217° |
| 2026-04-12 06:59 | -32.79977 | 23.68221 | 33717 ft | 467 kts | 217° |
| 2026-04-12 06:59 | -32.82589 | 23.65925 | 33146 ft | 468 kts | 217° |
| 2026-04-12 06:59 | -32.85213 | 23.63626 | 32529 ft | 469 kts | 217° |
| 2026-04-12 07:00 | -32.90448 | 23.59020 | 31298 ft | 471 kts | 217° |
| 2026-04-12 07:00 | -32.93091 | 23.56699 | 30688 ft | 472 kts | 217° |
| 2026-04-12 07:00 | -32.95776 | 23.54440 | 30068 ft | 472 kts | 213° |
| 2026-04-12 07:00 | -32.98593 | 23.52400 | 29447 ft | 473 kts | 210° |
| 2026-04-12 07:01 | -33.01446 | 23.50453 | 28827 ft | 473 kts | 210° |
| 2026-04-12 07:01 | -33.04295 | 23.48471 | 28205 ft | 473 kts | 211° |
| 2026-04-12 07:01 | -33.07100 | 23.46426 | 27588 ft | 473 kts | 212° |
| 2026-04-12 07:01 | -33.09871 | 23.44405 | 26970 ft | 473 kts | 211° |
| 2026-04-12 07:02 | -33.12676 | 23.42364 | 26348 ft | 473 kts | 211° |
| 2026-04-12 07:02 | -33.15464 | 23.40327 | 25727 ft | 466 kts | 211° |
| 2026-04-12 07:02 | -33.18232 | 23.38309 | 25109 ft | 467 kts | 211° |
| 2026-04-12 07:02 | -33.21005 | 23.36282 | 24495 ft | 466 kts | 212° |
| 2026-04-12 07:03 | -33.23764 | 23.34264 | 23876 ft | 462 kts | 211° |
| 2026-04-12 07:03 | -33.26494 | 23.32270 | 23268 ft | 458 kts | 212° |
| 2026-04-12 07:03 | -33.29196 | 23.30293 | 22663 ft | 452 kts | 212° |
| 2026-04-12 07:03 | -33.31862 | 23.28334 | 22064 ft | 448 kts | 212° |
| 2026-04-12 07:04 | -33.34512 | 23.26394 | 21469 ft | 443 kts | 212° |
| 2026-04-12 07:04 | -33.37130 | 23.24476 | 20882 ft | 440 kts | 212° |
| 2026-04-12 07:04 | -33.39724 | 23.22567 | 20311 ft | 436 kts | 212° |
| 2026-04-12 07:04 | -33.42307 | 23.20673 | 19724 ft | 433 kts | 212° |
| 2026-04-12 07:05 | -33.44863 | 23.18790 | 19151 ft | 430 kts | 212° |
| 2026-04-12 07:05 | -33.47402 | 23.16923 | 18582 ft | 427 kts | 212° |
| 2026-04-12 07:05 | -33.49079 | 23.15691 | 18211 ft | 425 kts | 212° |
| 2026-04-12 07:05 | -33.52409 | 23.13232 | 17459 ft | 422 kts | 212° |
| 2026-04-12 07:06 | -33.54895 | 23.11402 | 16902 ft | 416 kts | 212° |
| 2026-04-12 07:06 | -33.56555 | 23.10180 | 16528 ft | 411 kts | 212° |
| 2026-04-12 07:06 | -33.58970 | 23.08392 | 15987 ft | 405 kts | 212° |
| 2026-04-12 07:06 | -33.61361 | 23.06629 | 15448 ft | 399 kts | 212° |
| 2026-04-12 07:07 | -33.63680 | 23.04918 | 14929 ft | 394 kts | 212° |
| 2026-04-12 07:07 | -33.65986 | 23.03207 | 14407 ft | 382 kts | 212° |
| 2026-04-12 07:07 | -33.68213 | 23.01562 | 13906 ft | 370 kts | 212° |
| 2026-04-12 07:07 | -33.70374 | 22.99962 | 13414 ft | 359 kts | 212° |
| 2026-04-12 07:08 | -33.72471 | 22.98405 | 12936 ft | 350 kts | 212° |
| 2026-04-12 07:08 | -33.74521 | 22.96888 | 12481 ft | 342 kts | 212° |
| 2026-04-12 07:08 | -33.76538 | 22.95394 | 12022 ft | 335 kts | 212° |
| 2026-04-12 07:08 | -33.78497 | 22.93936 | 11580 ft | 328 kts | 212° |
| 2026-04-12 07:09 | -33.80421 | 22.92508 | 11155 ft | 322 kts | 212° |
| 2026-04-12 07:09 | -33.82315 | 22.91100 | 10735 ft | 317 kts | 212° |
| 2026-04-12 07:09 | -33.84131 | 22.89751 | 10316 ft | 303 kts | 212° |
| 2026-04-12 07:09 | -33.85888 | 22.88444 | 9918 ft | 291 kts | 212° |
| 2026-04-12 07:10 | -33.87600 | 22.87170 | 9519 ft | 281 kts | 212° |
| 2026-04-12 07:10 | -33.89233 | 22.85954 | 9169 ft | 273 kts | 212° |
| 2026-04-12 07:10 | -33.90839 | 22.84736 | 8815 ft | 273 kts | 212° |
| 2026-04-12 07:10 | -33.92421 | 22.83534 | 8460 ft | 272 kts | 212° |
| 2026-04-12 07:11 | -33.94016 | 22.82328 | 8120 ft | 270 kts | 212° |
| 2026-04-12 07:11 | -33.95605 | 22.81137 | 7776 ft | 268 kts | 212° |
| 2026-04-12 07:11 | -33.97190 | 22.79955 | 7432 ft | 267 kts | 212° |
| 2026-04-12 07:11 | -33.98616 | 22.78560 | 7043 ft | 264 kts | 235° |
| 2026-04-12 07:12 | -33.99254 | 22.76517 | 6701 ft | 261 kts | 260° |
| 2026-04-12 07:12 | -33.99428 | 22.74362 | 6368 ft | 257 kts | 268° |
| 2026-04-12 07:12 | -33.99465 | 22.72211 | 6015 ft | 256 kts | 268° |
| 2026-04-12 07:12 | -33.99528 | 22.70101 | 5662 ft | 254 kts | 268° |
| 2026-04-12 07:13 | -33.99587 | 22.67989 | 5344 ft | 251 kts | 268° |
| 2026-04-12 07:13 | -33.99659 | 22.65895 | 5001 ft | 249 kts | 268° |
| 2026-04-12 07:13 | -33.99724 | 22.63818 | 4669 ft | 247 kts | 268° |
| 2026-04-12 07:13 | -33.99794 | 22.61762 | 4354 ft | 244 kts | 268° |
| 2026-04-12 07:14 | -33.99861 | 22.59721 | 4027 ft | 243 kts | 268° |
| 2026-04-12 07:14 | -33.99925 | 22.57695 | 3676 ft | 237 kts | 268° |
| 2026-04-12 07:14 | -33.99984 | 22.55781 | 3380 ft | 221 kts | 268° |
| 2026-04-12 07:14 | -34.00040 | 22.54008 | 3123 ft | 207 kts | 268° |
| 2026-04-12 07:15 | -34.00095 | 22.52329 | 2878 ft | 194 kts | 268° |
| 2026-04-12 07:15 | -34.00143 | 22.50746 | 2625 ft | 180 kts | 268° |
| 2026-04-12 07:15 | -34.00188 | 22.49286 | 2351 ft | 168 kts | 268° |
| 2026-04-12 07:15 | -34.00232 | 22.47934 | 2149 ft | 153 kts | 268° |
| 2026-04-12 07:16 | -34.00272 | 22.46702 | 1951 ft | 141 kts | 268° |
| 2026-04-12 07:16 | -34.00309 | 22.45527 | 1787 ft | 141 kts | 268° |
| 2026-04-12 07:16 | -34.00349 | 22.44344 | 1581 ft | 141 kts | 268° |
| 2026-04-12 07:16 | -34.00387 | 22.43180 | 1406 ft | 141 kts | 268° |
| 2026-04-12 07:17 | -34.00423 | 22.41997 | 1191 ft | 141 kts | 268° |
| 2026-04-12 07:17 | -34.00459 | 22.40824 | 979 ft | 139 kts | 268° |
| 2026-04-12 07:17 | -34.00490 | 22.39668 | 774 ft | 137 kts | 268° |
| 2026-04-12 07:17 | -34.00529 | 22.38553 | 651 ft | 123 kts | 268° |
| 2026-04-12 07:18 | -34.00556 | 22.37722 | 657 ft | 76 kts | 268° |
| 2026-04-12 07:18 | -34.00571 | 22.37271 | 656 ft | 40 kts | 268° |
| 2026-04-12 07:18 | -34.00580 | 22.36986 | 654 ft | 30 kts | 267° |
| 2026-04-12 07:18 | -34.00586 | 22.36829 | 650 ft | 7 kts | 276° |
| 2026-04-12 07:19 | -34.00547 | 22.36787 | 650 ft | 8 kts | 351° |
| 2026-04-12 07:19 | -34.00490 | 22.36810 | 650 ft | 10 kts | 40° |
| 2026-04-12 07:19 | -34.00430 | 22.36874 | 647 ft | 14 kts | 44° |
| 2026-04-12 07:19 | -34.00372 | 22.36997 | 642 ft | 20 kts | 79° |